Time;durP1;ratioP1;P1;durP2;ratioP2;P2;SDS_P1;SDS_P2;PMS_P1;PMS_P2;Temp;Humidity;BMP_temperature;BMP_pressure;BME280_temperature;BME280_humidity;BME280_pressure;Samples;Min_cycle;Max_cycle;Signal;HPM_P1;HPM_P2
2021/10/03 00:00:16;;;;;;;2.07;1.40;;;21.70;99.90;;;;;;5012409;28;20577;-80
2021/10/03 00:02:44;;;;;;;2.30;1.47;;;21.70;99.90;;;;;;5012946;28;20597;-81
2021/10/03 00:05:12;;;;;;;2.20;1.50;;;21.70;99.90;;;;;;5012639;28;20605;-80
2021/10/03 00:07:49;;;;;;;2.03;1.50;;;21.70;99.90;;;;;;5012724;28;20653;-80
2021/10/03 00:10:17;;;;;;;1.60;1.30;;;21.70;99.90;;;;;;5011267;28;20620;-81
2021/10/03 00:12:43;;;;;;;1.87;1.20;;;21.70;99.90;;;;;;5018297;28;20588;-81
2021/10/03 00:15:10;;;;;;;2.33;1.13;;;21.70;99.90;;;;;;5012525;28;20585;-81
2021/10/03 00:17:37;;;;;;;3.43;1.60;;;21.70;99.90;;;;;;5025568;28;21171;-80
2021/10/03 00:20:04;;;;;;;2.70;1.40;;;21.70;99.90;;;;;;5024490;28;20638;-81
2021/10/03 00:22:29;;;;;;;2.67;1.00;;;21.70;99.90;;;;;;5013824;28;21152;-80
2021/10/03 00:24:57;;;;;;;1.80;1.30;;;21.70;99.90;;;;;;5028391;28;20655;-81
2021/10/03 00:27:24;;;;;;;2.40;1.10;;;21.70;99.90;;;;;;5016866;28;20296;-81
2021/10/03 00:29:49;;;;;;;3.57;1.20;;;21.70;99.90;;;;;;5029749;28;20588;-81
2021/10/03 00:32:15;;;;;;;1.60;1.40;;;21.70;99.90;;;;;;5025669;28;20623;-81
2021/10/03 00:34:41;;;;;;;2.00;1.37;;;21.70;99.90;;;;;;5011785;28;20170;-81
2021/10/03 00:37:07;;;;;;;1.90;1.60;;;21.70;99.90;;;;;;5033018;28;20170;-81
2021/10/03 00:39:32;;;;;;;1.77;0.90;;;21.70;99.90;;;;;;5021041;28;20174;-81
2021/10/03 00:42:00;;;;;;;2.20;1.43;;;21.70;99.90;;;;;;5035147;28;20181;-81
2021/10/03 00:44:27;;;;;;;4.37;1.10;;;21.70;99.90;;;;;;5037248;28;20201;-81
2021/10/03 00:46:53;;;;;;;2.23;1.23;;;21.70;99.90;;;;;;5037980;28;20666;-81
2021/10/03 00:49:19;;;;;;;3.20;1.17;;;21.80;99.90;;;;;;5038535;28;21107;-81
2021/10/03 00:51:45;;;;;;;1.90;1.10;;;21.70;99.90;;;;;;5040963;28;20577;-81
2021/10/03 00:54:11;;;;;;;2.90;1.30;;;21.70;99.90;;;;;;5036583;28;20581;-81
2021/10/03 00:56:39;;;;;;;2.10;1.23;;;21.70;99.90;;;;;;5036161;28;20608;-81
2021/10/03 00:59:05;;;;;;;2.13;1.20;;;21.70;99.90;;;;;;5036412;28;20959;-81
2021/10/03 01:01:31;;;;;;;1.70;0.80;;;21.60;99.90;;;;;;5036179;28;20897;-81
2021/10/03 01:03:57;;;;;;;1.70;1.20;;;21.60;99.90;;;;;;5037479;28;20583;-81
2021/10/03 01:06:23;;;;;;;2.00;1.20;;;21.60;99.90;;;;;;5019701;28;20967;-81
2021/10/03 01:08:49;;;;;;;2.00;1.10;;;21.60;99.90;;;;;;5039652;28;20212;-81
2021/10/03 01:11:15;;;;;;;1.60;1.00;;;21.70;99.90;;;;;;5037479;28;20568;-81
2021/10/03 01:13:45;;;;;;;1.50;0.80;;;21.60;99.90;;;;;;5039607;28;20158;-82
2021/10/03 01:16:10;;;;;;;1.60;0.90;;;21.60;99.90;;;;;;5026544;28;20625;-81
2021/10/03 01:18:36;;;;;;;1.63;1.07;;;21.60;99.90;;;;;;5025871;28;20588;-81
2021/10/03 01:21:06;;;;;;;1.97;1.37;;;21.60;99.90;;;;;;5005414;28;20210;-81
2021/10/03 01:23:32;;;;;;;3.40;1.10;;;21.60;99.90;;;;;;5022198;28;20197;-81
2021/10/03 01:25:58;;;;;;;1.60;1.00;;;21.60;99.90;;;;;;5025967;28;20593;-81
2021/10/03 01:28:24;;;;;;;1.63;0.93;;;21.60;99.90;;;;;;5021210;28;20712;-81
2021/10/03 01:30:52;;;;;;;2.73;1.00;;;21.50;99.90;;;;;;5021650;28;20689;-82
2021/10/03 01:33:20;;;;;;;2.57;1.20;;;21.50;99.90;;;;;;5020939;28;20596;-81
2021/10/03 01:35:46;;;;;;;1.77;1.10;;;21.50;99.90;;;;;;5009950;28;20624;-81
2021/10/03 01:38:14;;;;;;;2.27;1.17;;;21.50;99.90;;;;;;4993546;28;21392;-81
2021/10/03 01:40:45;;;;;;;1.40;0.80;;;21.50;99.90;;;;;;5009794;28;20581;-81
2021/10/03 01:43:12;;;;;;;2.10;1.13;;;21.50;99.90;;;;;;5010833;28;21134;-81
2021/10/03 01:45:38;;;;;;;2.27;1.10;;;21.50;99.90;;;;;;5015160;28;21048;-81
2021/10/03 01:48:07;;;;;;;1.97;1.17;;;21.50;99.90;;;;;;5015677;28;20724;-81
2021/10/03 01:50:40;;;;;;;1.90;1.30;;;21.40;99.90;;;;;;5015015;28;20175;-82
2021/10/03 01:53:08;;;;;;;1.50;0.93;;;21.40;99.90;;;;;;5015250;28;20968;-82
2021/10/03 01:55:34;;;;;;;2.00;0.97;;;21.40;99.90;;;;;;5015337;28;20612;-82
2021/10/03 01:58:00;;;;;;;1.40;1.00;;;21.40;99.90;;;;;;5013911;28;20628;-81
2021/10/03 02:00:27;;;;;;;1.77;1.10;;;21.30;99.90;;;;;;5015160;28;20639;-82
2021/10/03 02:03:01;;;;;;;2.07;1.00;;;21.30;99.90;;;;;;5017938;28;20580;-81
2021/10/03 02:05:32;;;;;;;1.53;1.00;;;21.30;99.90;;;;;;5014903;28;20596;-82
2021/10/03 02:07:58;;;;;;;1.30;0.90;;;21.20;99.90;;;;;;5015102;28;20621;-82
2021/10/03 02:10:25;;;;;;;3.50;1.00;;;21.20;99.90;;;;;;5014768;28;20569;-82
2021/10/03 02:12:52;;;;;;;1.30;0.87;;;21.20;99.90;;;;;;5031807;28;20166;-79
2021/10/03 02:15:20;;;;;;;2.47;1.03;;;21.20;99.90;;;;;;5036973;28;20669;-79
2021/10/03 02:17:46;;;;;;;1.70;1.30;;;21.20;99.90;;;;;;5052453;28;20603;-79
2021/10/03 02:20:15;;;;;;;2.37;1.60;;;21.10;99.90;;;;;;5056122;28;20572;-79
2021/10/03 02:22:42;;;;;;;1.40;1.07;;;21.10;99.90;;;;;;5056926;28;20184;-79
2021/10/03 02:25:09;;;;;;;2.33;0.90;;;21.10;99.90;;;;;;5058187;28;20588;-79
2021/10/03 02:27:35;;;;;;;1.50;0.90;;;21.00;99.90;;;;;;5059992;28;20634;-79
2021/10/03 02:30:03;;;;;;;2.00;0.90;;;21.00;99.90;;;;;;5060122;28;20685;-79
2021/10/03 02:32:28;;;;;;;1.60;1.20;;;20.90;99.90;;;;;;5058738;28;20196;-79
2021/10/03 02:34:55;;;;;;;4.07;1.47;;;20.90;99.90;;;;;;5055935;28;20675;-79
2021/10/03 02:37:22;;;;;;;2.13;1.30;;;20.90;99.90;;;;;;5049711;28;20193;-80
2021/10/03 02:39:47;;;;;;;2.13;1.23;;;20.90;99.90;;;;;;5044832;28;20618;-79
2021/10/03 02:42:13;;;;;;;1.90;1.10;;;20.80;99.90;;;;;;5051139;28;20590;-79
2021/10/03 02:44:39;;;;;;;1.77;1.00;;;20.80;99.90;;;;;;5050660;28;20162;-79
2021/10/03 02:47:11;;;;;;;3.73;1.80;;;20.80;99.90;;;;;;5052359;28;20201;-78
2021/10/03 02:49:38;;;;;;;1.43;1.10;;;20.70;99.90;;;;;;5051998;28;20572;-79
2021/10/03 02:52:04;;;;;;;3.23;1.40;;;20.70;99.90;;;;;;5048099;28;20599;-79
2021/10/03 02:54:30;;;;;;;2.47;1.73;;;20.70;99.90;;;;;;5046295;28;20576;-79
2021/10/03 02:56:56;;;;;;;1.80;1.13;;;20.60;99.90;;;;;;5046548;28;20604;-79
2021/10/03 02:59:21;;;;;;;2.03;1.27;;;20.60;99.90;;;;;;5042853;28;20276;-79
2021/10/03 03:01:47;;;;;;;1.80;1.30;;;20.60;99.90;;;;;;5040786;28;20173;-79
2021/10/03 03:04:13;;;;;;;2.00;1.40;;;20.60;99.90;;;;;;5040897;28;20659;-79
2021/10/03 03:06:39;;;;;;;2.43;1.47;;;20.60;99.90;;;;;;5057143;28;20201;-79
2021/10/03 03:09:05;;;;;;;2.80;1.57;;;20.60;99.90;;;;;;5057470;28;20728;-79
2021/10/03 03:11:31;;;;;;;1.90;1.43;;;20.60;99.90;;;;;;5057355;28;20180;-79
2021/10/03 03:13:56;;;;;;;1.90;1.30;;;20.60;99.90;;;;;;5058092;28;20162;-79
2021/10/03 03:16:22;;;;;;;1.90;1.43;;;20.60;99.90;;;;;;5055382;28;20225;-79
2021/10/03 03:18:48;;;;;;;3.63;1.90;;;20.60;99.90;;;;;;5057594;28;20166;-79
2021/10/03 03:21:13;;;;;;;3.73;1.53;;;20.70;99.90;;;;;;5056890;28;20173;-79
2021/10/03 03:23:39;;;;;;;2.67;1.87;;;20.70;99.90;;;;;;5056332;28;20177;-79
2021/10/03 03:26:05;;;;;;;1.90;1.40;;;20.70;99.90;;;;;;5055903;28;20328;-79
2021/10/03 03:28:31;;;;;;;2.77;1.90;;;20.70;99.90;;;;;;5056241;28;20695;-79
2021/10/03 03:30:56;;;;;;;4.47;2.20;;;20.80;99.90;;;;;;5055616;28;20178;-79
2021/10/03 03:33:22;;;;;;;2.53;1.53;;;20.80;99.90;;;;;;5055311;28;20166;-79
2021/10/03 03:35:48;;;;;;;3.07;1.90;;;20.80;99.90;;;;;;5055430;28;20193;-79
2021/10/03 03:38:14;;;;;;;2.73;1.87;;;20.90;99.90;;;;;;5055838;28;20233;-79
2021/10/03 03:40:40;;;;;;;2.97;2.10;;;20.90;99.90;;;;;;5055272;28;20556;-79
2021/10/03 03:43:05;;;;;;;2.03;1.73;;;21.00;99.90;;;;;;5056254;28;20689;-79
2021/10/03 03:45:31;;;;;;;2.80;1.40;;;21.00;99.90;;;;;;5054144;28;20189;-79
2021/10/03 03:48:01;;;;;;;3.00;2.07;;;21.10;99.90;;;;;;5076258;23;20671;-78
2021/10/03 03:50:28;;;;;;;2.90;1.97;;;21.10;99.90;;;;;;5052611;28;20302;-78
2021/10/03 03:52:56;;;;;;;2.27;1.77;;;21.10;99.90;;;;;;5052342;28;20603;-78
2021/10/03 03:55:22;;;;;;;2.57;2.07;;;21.20;99.90;;;;;;5052177;28;20682;-78
2021/10/03 03:57:49;;;;;;;4.40;1.87;;;21.20;99.90;;;;;;5053349;28;20691;-78
2021/10/03 04:00:15;;;;;;;2.70;2.50;;;21.30;99.90;;;;;;5072941;28;20173;-78
2021/10/03 04:02:41;;;;;;;3.63;1.93;;;21.30;99.90;;;;;;5072053;28;20590;-78
2021/10/03 04:05:07;;;;;;;2.30;1.87;;;21.40;99.90;;;;;;5072745;28;20899;-78
2021/10/03 04:07:33;;;;;;;3.53;2.33;;;21.50;99.90;;;;;;5070795;28;20200;-78
2021/10/03 04:09:59;;;;;;;2.80;1.77;;;21.50;99.90;;;;;;5077509;28;20578;-78
2021/10/03 04:12:25;;;;;;;2.83;1.83;;;21.60;99.90;;;;;;5072603;28;20168;-78
2021/10/03 04:14:50;;;;;;;2.87;2.10;;;21.60;99.90;;;;;;5072353;28;20578;-78
2021/10/03 04:17:16;;;;;;;2.23;2.03;;;21.70;99.90;;;;;;5072201;28;20172;-78
2021/10/03 04:19:42;;;;;;;2.90;2.13;;;21.70;99.90;;;;;;5070589;28;20599;-78
2021/10/03 04:22:08;;;;;;;5.13;2.90;;;21.80;99.90;;;;;;5072334;28;20179;-78
2021/10/03 04:24:33;;;;;;;6.67;2.60;;;21.80;99.90;;;;;;5071896;28;20532;-78
2021/10/03 04:26:59;;;;;;;3.40;2.40;;;21.80;99.90;;;;;;5072125;28;20273;-78
2021/10/03 04:29:25;;;;;;;3.00;2.37;;;21.90;99.90;;;;;;5070486;28;20664;-78
2021/10/03 04:31:51;;;;;;;4.33;2.60;;;21.90;99.90;;;;;;5071944;28;20171;-78
2021/10/03 04:34:16;;;;;;;2.33;2.13;;;22.00;99.90;;;;;;5071704;28;20271;-78
2021/10/03 04:36:42;;;;;;;2.57;1.90;;;22.00;99.90;;;;;;5070737;28;20168;-78
2021/10/03 04:39:08;;;;;;;3.50;2.30;;;22.10;99.90;;;;;;5071533;28;20602;-78
2021/10/03 04:41:33;;;;;;;3.23;2.00;;;22.10;99.90;;;;;;5071902;28;20174;-78
2021/10/03 04:43:59;;;;;;;4.63;2.23;;;22.20;99.90;;;;;;5071643;28;20636;-78
2021/10/03 04:46:25;;;;;;;2.97;2.57;;;22.20;99.90;;;;;;5075887;28;20200;-78
2021/10/03 04:48:51;;;;;;;2.90;2.63;;;22.20;99.90;;;;;;5075080;28;20349;-78
2021/10/03 04:51:16;;;;;;;2.83;2.30;;;22.30;99.90;;;;;;5077776;28;20574;-78
2021/10/03 04:53:42;;;;;;;2.93;2.40;;;22.30;99.90;;;;;;5078097;28;20176;-78
2021/10/03 04:56:09;;;;;;;3.47;2.50;;;22.30;99.90;;;;;;5075841;28;20640;-79
2021/10/03 04:58:35;;;;;;;3.20;2.10;;;22.30;99.90;;;;;;5070528;28;20204;-78
2021/10/03 05:01:01;;;;;;;3.77;1.87;;;22.40;99.90;;;;;;5071318;28;20578;-78
2021/10/03 05:03:27;;;;;;;3.07;2.17;;;22.40;99.90;;;;;;5071811;28;20570;-78
2021/10/03 05:05:52;;;;;;;3.37;2.80;;;22.40;99.90;;;;;;5071444;28;20577;-78
2021/10/03 05:08:18;;;;;;;4.53;2.17;;;22.40;99.90;;;;;;5071749;28;20597;-78
2021/10/03 05:10:45;;;;;;;3.70;2.07;;;22.50;99.90;;;;;;5071247;28;20498;-78
2021/10/03 05:13:11;;;;;;;5.87;2.47;;;22.50;99.90;;;;;;5071721;28;20550;-78
2021/10/03 05:15:37;;;;;;;3.23;2.23;;;22.50;99.90;;;;;;5070630;28;20563;-78
2021/10/03 05:18:03;;;;;;;4.63;2.73;;;22.50;99.90;;;;;;5072105;28;20660;-78
2021/10/03 05:20:28;;;;;;;3.60;2.50;;;22.50;99.90;;;;;;5075629;28;20321;-78
2021/10/03 05:22:54;;;;;;;3.13;2.30;;;22.50;99.90;;;;;;5075034;28;20661;-78
2021/10/03 05:25:20;;;;;;;2.80;2.33;;;22.50;99.90;;;;;;5082836;28;20176;-78
2021/10/03 05:27:46;;;;;;;3.50;2.40;;;22.50;99.90;;;;;;5079123;28;20208;-78
2021/10/03 05:30:12;;;;;;;5.07;3.23;;;22.60;99.90;;;;;;5079140;28;20570;-78
2021/10/03 05:32:38;;;;;;;3.80;2.30;;;22.60;99.90;;;;;;5077277;28;20179;-78
2021/10/03 05:35:05;;;;;;;2.40;2.03;;;22.60;99.90;;;;;;5075768;28;20567;-79
2021/10/03 05:37:30;;;;;;;3.23;2.30;;;22.60;99.90;;;;;;5077590;28;20598;-79
2021/10/03 05:39:56;;;;;;;3.23;2.20;;;22.50;99.90;;;;;;5076901;28;20782;-79
2021/10/03 05:42:22;;;;;;;2.40;1.97;;;22.50;99.90;;;;;;5076285;28;20172;-79
2021/10/03 05:44:48;;;;;;;3.93;2.30;;;22.60;99.90;;;;;;5077409;28;20219;-79
2021/10/03 05:47:14;;;;;;;6.83;1.93;;;22.50;99.90;;;;;;5076768;28;20642;-79
2021/10/03 05:49:40;;;;;;;6.10;2.30;;;22.50;99.90;;;;;;5078458;28;20653;-79
2021/10/03 05:52:06;;;;;;;3.97;2.57;;;22.50;99.90;;;;;;5075822;28;20255;-79
2021/10/03 05:54:31;;;;;;;2.20;1.93;;;22.50;99.90;;;;;;5075237;28;20534;-79
2021/10/03 05:56:57;;;;;;;5.57;2.70;;;22.50;99.90;;;;;;5080681;28;20570;-79
2021/10/03 05:59:23;;;;;;;5.67;2.90;;;22.50;99.90;;;;;;5079915;28;20196;-79
2021/10/03 06:01:48;;;;;;;2.73;1.80;;;22.60;99.90;;;;;;5084132;28;20652;-79
2021/10/03 06:04:14;;;;;;;3.00;1.97;;;22.60;99.90;;;;;;5081636;28;20512;-79
2021/10/03 06:06:40;;;;;;;6.57;2.70;;;22.60;99.90;;;;;;5078427;28;20169;-79
2021/10/03 06:09:06;;;;;;;4.83;2.20;;;22.60;99.90;;;;;;5076303;28;20188;-79
2021/10/03 06:11:32;;;;;;;2.20;1.93;;;22.60;99.90;;;;;;5076840;28;20963;-80
2021/10/03 06:13:58;;;;;;;4.80;2.40;;;22.60;99.90;;;;;;5077921;28;20173;-80
2021/10/03 06:16:25;;;;;;;3.33;2.50;;;22.60;99.90;;;;;;5077717;28;20172;-80
2021/10/03 06:18:50;;;;;;;4.47;2.57;;;22.60;99.90;;;;;;5075103;28;20597;-80
2021/10/03 06:21:16;;;;;;;2.97;1.87;;;22.60;99.90;;;;;;5056578;28;20570;-80
2021/10/03 06:23:43;;;;;;;2.93;2.57;;;22.60;99.90;;;;;;5073655;28;20175;-77
2021/10/03 06:26:11;;;;;;;4.27;2.83;;;22.60;99.90;;;;;;5074589;28;20584;-79
2021/10/03 06:28:37;;;;;;;2.70;1.93;;;22.70;99.90;;;;;;5075068;28;20629;-79
2021/10/03 06:31:04;;;;;;;5.50;2.30;;;22.60;99.90;;;;;;5077159;28;20559;-80
2021/10/03 06:33:31;;;;;;;3.13;1.93;;;22.70;99.90;;;;;;5077200;28;20565;-79
2021/10/03 06:35:57;;;;;;;4.57;2.50;;;22.70;99.90;;;;;;5076015;28;20563;-80
2021/10/03 06:38:23;;;;;;;3.27;2.30;;;22.70;99.90;;;;;;5081160;28;20673;-79
2021/10/03 06:40:49;;;;;;;3.93;2.37;;;22.70;99.90;;;;;;5077430;28;21157;-80
2021/10/03 06:43:15;;;;;;;2.27;1.80;;;22.70;99.90;;;;;;5075264;28;20255;-79
2021/10/03 06:45:41;;;;;;;2.93;2.20;;;22.70;99.90;;;;;;5074891;28;20662;-80
2021/10/03 06:48:09;;;;;;;2.13;1.67;;;22.70;99.90;;;;;;5074225;28;20616;-79
2021/10/03 06:50:35;;;;;;;2.30;1.80;;;22.70;99.90;;;;;;5076632;28;20177;-77
2021/10/03 06:53:01;;;;;;;3.03;2.27;;;22.70;99.90;;;;;;5076260;28;20573;-77
2021/10/03 06:55:26;;;;;;;2.73;1.90;;;22.70;99.90;;;;;;5075512;28;20161;-77
2021/10/03 06:57:52;;;;;;;2.63;2.10;;;22.70;99.90;;;;;;5075292;28;20562;-77
2021/10/03 07:00:18;;;;;;;3.00;2.10;;;22.70;99.90;;;;;;5076208;28;20225;-77
2021/10/03 07:02:44;;;;;;;3.57;2.30;;;22.70;99.90;;;;;;5070906;28;20271;-77
2021/10/03 07:05:10;;;;;;;3.90;2.40;;;22.80;99.90;;;;;;5075126;28;20222;-78
2021/10/03 07:07:36;;;;;;;2.77;1.83;;;22.80;99.90;;;;;;5063140;28;21251;-78
2021/10/03 07:10:03;;;;;;;3.03;1.93;;;22.80;99.90;;;;;;5075926;28;20658;-78
2021/10/03 07:12:29;;;;;;;2.63;1.83;;;22.80;99.90;;;;;;5072399;28;21060;-78
2021/10/03 07:14:55;;;;;;;2.63;2.37;;;22.80;99.90;;;;;;5046375;28;20578;-78
2021/10/03 07:17:21;;;;;;;3.63;2.00;;;22.80;99.90;;;;;;5062756;28;20215;-78
2021/10/03 07:19:46;;;;;;;4.07;2.67;;;22.80;99.90;;;;;;5065469;28;20184;-78
2021/10/03 07:22:15;;;;;;;3.97;2.27;;;22.80;99.90;;;;;;5074306;28;20211;-77
2021/10/03 07:24:41;;;;;;;3.30;2.87;;;22.70;99.90;;;;;;5073893;28;20594;-77
2021/10/03 07:27:07;;;;;;;2.87;2.10;;;22.70;99.90;;;;;;5074009;28;20628;-77
2021/10/03 07:29:34;;;;;;;2.50;1.77;;;22.70;99.90;;;;;;5072788;28;20708;-78
2021/10/03 07:32:00;;;;;;;3.60;2.43;;;22.60;99.90;;;;;;5073445;28;20888;-76
2021/10/03 07:34:28;;;;;;;4.13;1.80;;;22.50;99.90;;;;;;5074012;28;20590;-75
2021/10/03 07:36:54;;;;;;;3.50;2.30;;;22.40;99.90;;;;;;5073411;28;20582;-75
2021/10/03 07:39:19;;;;;;;3.50;2.83;;;22.40;99.90;;;;;;5072323;28;20644;-75
2021/10/03 07:41:47;;;;;;;4.07;2.07;;;22.30;99.90;;;;;;5071452;28;20587;-75
2021/10/03 07:44:13;;;;;;;3.70;1.97;;;22.20;99.90;;;;;;5071447;28;20222;-75
2021/10/03 07:46:38;;;;;;;2.50;2.30;;;22.20;99.90;;;;;;5072451;28;20677;-76
2021/10/03 07:49:04;;;;;;;3.23;2.03;;;22.10;99.90;;;;;;5072655;28;20613;-76
2021/10/03 07:51:30;;;;;;;2.60;2.00;;;22.10;99.90;;;;;;5077127;28;20169;-76
2021/10/03 07:53:56;;;;;;;4.20;2.10;;;22.10;99.90;;;;;;5073792;28;20180;-76
2021/10/03 07:56:21;;;;;;;2.53;2.23;;;22.10;99.90;;;;;;5072634;28;20198;-76
2021/10/03 07:58:47;;;;;;;2.40;2.00;;;22.10;99.90;;;;;;5072235;28;20207;-76
2021/10/03 08:01:13;;;;;;;2.63;2.40;;;22.10;99.90;;;;;;5071118;28;20180;-76
2021/10/03 08:03:39;;;;;;;3.00;2.70;;;22.10;99.90;;;;;;5072071;28;20200;-76
2021/10/03 08:06:05;;;;;;;6.20;2.63;;;22.10;99.90;;;;;;5072284;28;20226;-76
2021/10/03 08:08:31;;;;;;;2.53;2.30;;;22.10;99.90;;;;;;5071635;28;20636;-77
2021/10/03 08:10:57;;;;;;;2.30;2.00;;;22.10;99.90;;;;;;5069004;28;20662;-77
2021/10/03 08:13:23;;;;;;;2.57;2.10;;;22.10;99.90;;;;;;5072087;28;20168;-77
2021/10/03 08:15:48;;;;;;;3.33;2.23;;;22.10;99.90;;;;;;5064825;28;20186;-77
2021/10/03 08:18:15;;;;;;;2.50;2.03;;;22.20;99.90;;;;;;5071632;28;20658;-78
2021/10/03 08:20:41;;;;;;;2.87;1.87;;;22.20;99.90;;;;;;5061948;28;20176;-78
2021/10/03 08:23:07;;;;;;;4.30;2.33;;;22.20;99.90;;;;;;5043056;28;20575;-78
2021/10/03 08:25:33;;;;;;;4.37;2.20;;;22.20;99.90;;;;;;5048225;28;20570;-78
2021/10/03 08:27:59;;;;;;;2.47;1.90;;;22.20;99.90;;;;;;5074600;28;20622;-78
2021/10/03 08:30:25;;;;;;;3.23;2.17;;;22.20;99.90;;;;;;5073350;28;20950;-79
2021/10/03 08:32:52;;;;;;;3.03;2.07;;;22.10;99.90;;;;;;5061764;28;20326;-79
2021/10/03 08:35:17;;;;;;;4.87;2.07;;;22.10;99.90;;;;;;5071147;28;20673;-78
2021/10/03 08:37:44;;;;;;;2.93;2.57;;;22.10;99.90;;;;;;5066853;28;20172;-78
2021/10/03 08:40:13;;;;;;;2.93;1.97;;;22.00;99.90;;;;;;5071919;28;20190;-78
2021/10/03 08:42:40;;;;;;;2.43;1.70;;;22.00;99.90;;;;;;5058643;28;20586;-78
2021/10/03 08:45:07;;;;;;;3.13;2.47;;;22.00;99.90;;;;;;5071389;28;20666;-78
2021/10/03 08:47:38;;;;;;;3.97;2.13;;;22.00;99.90;;;;;;5070956;28;20653;-78
2021/10/03 08:50:09;;;;;;;2.33;1.97;;;22.00;99.90;;;;;;5070948;28;21008;-78
2021/10/03 08:52:37;;;;;;;4.50;2.17;;;22.00;99.90;;;;;;5071166;28;20601;-78
2021/10/03 08:55:03;;;;;;;2.67;1.93;;;22.00;99.90;;;;;;5070333;28;20566;-78
2021/10/03 08:57:29;;;;;;;2.20;1.50;;;22.00;99.90;;;;;;5071277;28;20693;-78
2021/10/03 09:00:04;;;;;;;2.87;2.33;;;22.00;99.90;;;;;;5039566;28;20603;-78
2021/10/03 09:02:33;;;;;;;4.73;2.30;;;22.00;99.90;;;;;;5065114;28;20195;-78
2021/10/03 09:04:59;;;;;;;2.70;2.43;;;22.00;99.90;;;;;;5074431;28;20571;-78
2021/10/03 09:07:24;;;;;;;2.30;2.10;;;22.10;99.90;;;;;;5072958;28;21199;-78
2021/10/03 09:09:59;;;;;;;2.40;2.20;;;22.10;99.90;;;;;;5059070;28;20189;-78
2021/10/03 09:12:24;;;;;;;5.10;2.40;;;22.10;99.90;;;;;;5056962;28;20267;-78
2021/10/03 09:14:50;;;;;;;2.93;2.27;;;22.10;99.90;;;;;;5070314;28;20681;-78
2021/10/03 09:17:17;;;;;;;3.10;2.00;;;22.00;99.90;;;;;;5070955;28;20188;-79
2021/10/03 09:20:15;;;;;;;3.13;2.10;;;22.10;99.90;;;;;;5071110;28;20599;-79
2021/10/03 09:23:03;;;;;;;2.67;2.00;;;22.10;99.90;;;;;;5070061;28;20929;-76
2021/10/03 09:25:39;;;;;;;2.87;1.60;;;22.10;99.90;;;;;;5069679;28;20577;-76
2021/10/03 09:28:30;;;;;;;4.27;2.33;;;22.10;99.90;;;;;;5071113;28;20683;-78
2021/10/03 09:31:06;;;;;;;2.60;2.10;;;22.10;99.90;;;;;;5065219;28;20590;-77
2021/10/03 09:33:44;;;;;;;5.50;2.27;;;22.10;99.90;;;;;;5070157;28;20670;-78
2021/10/03 09:36:12;;;;;;;3.60;2.23;;;22.10;99.90;;;;;;5069283;28;20583;-77
2021/10/03 09:38:52;;;;;;;2.47;2.27;;;22.20;99.90;;;;;;5070886;28;20602;-76
2021/10/03 09:41:23;;;;;;;3.53;2.50;;;22.20;99.90;;;;;;5070414;28;20571;-77
2021/10/03 09:44:05;;;;;;;3.60;2.27;;;22.20;99.90;;;;;;5072584;28;20671;-77
2021/10/03 09:46:37;;;;;;;3.00;2.00;;;22.20;99.90;;;;;;5070806;28;21126;-78
2021/10/03 09:49:08;;;;;;;3.40;2.60;;;22.20;99.90;;;;;;5070581;28;20607;-78
2021/10/03 09:51:36;;;;;;;2.93;2.00;;;22.30;99.90;;;;;;5052331;28;20614;-77
2021/10/03 09:54:04;;;;;;;2.47;2.10;;;22.30;99.90;;;;;;5070826;28;20654;-78
2021/10/03 09:56:31;;;;;;;2.90;2.17;;;22.30;99.90;;;;;;5070778;28;21063;-78
2021/10/03 09:59:00;;;;;;;3.37;2.60;;;22.30;99.90;;;;;;5069378;28;20943;-77
2021/10/03 10:01:43;;;;;;;3.27;2.20;;;22.30;99.90;;;;;;5068615;28;21086;-77
2021/10/03 10:04:09;;;;;;;2.10;1.90;;;22.40;99.90;;;;;;5069612;28;20918;-77
2021/10/03 10:06:35;;;;;;;2.63;2.10;;;22.40;99.90;;;;;;5074503;28;20559;-78
2021/10/03 10:09:11;;;;;;;2.87;1.73;;;22.40;99.90;;;;;;5074013;28;20196;-77
2021/10/03 10:11:44;;;;;;;2.23;2.00;;;22.50;99.90;;;;;;5074553;28;21048;-78
2021/10/03 10:14:10;;;;;;;4.47;2.03;;;22.50;99.90;;;;;;5073156;28;20711;-78
2021/10/03 10:16:46;;;;;;;3.37;1.77;;;22.50;99.90;;;;;;5074242;28;20877;-78
2021/10/03 10:19:35;;;;;;;2.77;1.90;;;22.60;99.90;;;;;;5077257;28;20601;-78
2021/10/03 10:22:14;;;;;;;2.77;2.30;;;22.60;99.90;;;;;;5073822;28;20589;-78
2021/10/03 10:24:50;;;;;;;3.77;2.80;;;22.60;99.90;;;;;;5074041;28;20570;-79
2021/10/03 10:27:24;;;;;;;2.23;1.93;;;22.70;99.90;;;;;;5074075;28;21248;-78
2021/10/03 10:30:06;;;;;;;2.03;1.80;;;22.80;99.90;;;;;;5073747;28;20647;-78
2021/10/03 10:32:55;;;;;;;1.80;1.60;;;22.80;99.90;;;;;;5073968;28;20566;-78
2021/10/03 10:35:21;;;;;;;2.77;2.20;;;22.90;99.90;;;;;;5073852;28;20566;-78
2021/10/03 10:37:50;;;;;;;2.40;1.90;;;22.90;99.90;;;;;;5074480;28;20590;-78
2021/10/03 10:40:22;;;;;;;2.80;1.87;;;22.90;99.90;;;;;;5072205;28;20628;-77
2021/10/03 10:43:04;;;;;;;5.63;2.40;;;22.90;99.90;;;;;;5073320;28;20559;-77
2021/10/03 10:45:30;;;;;;;2.40;1.80;;;23.00;99.90;;;;;;5072605;28;20582;-77
2021/10/03 10:48:14;;;;;;;2.77;1.90;;;23.00;99.90;;;;;;5073973;28;21052;-77
2021/10/03 10:50:48;;;;;;;4.53;2.17;;;23.00;99.90;;;;;;5073602;28;20594;-77
2021/10/03 10:53:25;;;;;;;3.10;2.13;;;23.00;99.90;;;;;;5074298;28;20553;-78
2021/10/03 10:56:24;;;;;;;2.37;2.17;;;23.00;99.90;;;;;;5077620;28;20578;-77
2021/10/03 10:59:02;;;;;;;2.80;2.00;;;23.00;99.90;;;;;;5073953;28;20622;-76
2021/10/03 11:01:30;;;;;;;2.10;1.80;;;23.00;99.90;;;;;;5073253;28;20574;-77
2021/10/03 11:03:59;;;;;;;2.50;1.80;;;23.10;99.90;;;;;;5073619;28;20587;-77
2021/10/03 11:06:44;;;;;;;3.30;2.30;;;23.10;99.90;;;;;;5073459;28;20561;-77
2021/10/03 11:09:11;;;;;;;2.70;2.00;;;23.10;99.90;;;;;;5072977;28;20661;-77
2021/10/03 11:11:39;;;;;;;2.03;1.70;;;23.10;99.90;;;;;;5072936;28;20582;-77
2021/10/03 11:14:09;;;;;;;3.20;1.93;;;23.20;99.90;;;;;;5072964;28;20625;-77
2021/10/03 11:16:46;;;;;;;2.10;1.90;;;23.20;99.90;;;;;;5070911;28;20611;-77
2021/10/03 11:19:32;;;;;;;2.77;1.80;;;23.20;99.90;;;;;;5073493;28;20624;-77
2021/10/03 11:22:01;;;;;;;3.03;2.10;;;23.20;99.90;;;;;;5073298;28;20575;-78
2021/10/03 11:24:34;;;;;;;2.40;2.20;;;23.30;99.90;;;;;;5073327;28;20570;-78
2021/10/03 11:27:07;;;;;;;2.73;1.60;;;23.30;99.90;;;;;;5073072;28;20701;-77
2021/10/03 11:29:37;;;;;;;3.77;2.40;;;23.30;99.90;;;;;;5073337;28;20626;-77
2021/10/03 11:32:06;;;;;;;5.83;1.40;;;23.30;99.90;;;;;;5075878;28;20566;-77
2021/10/03 11:34:51;;;;;;;3.37;2.47;;;23.40;99.90;;;;;;5077424;28;20618;-77
2021/10/03 11:37:26;;;;;;;1.90;1.50;;;23.40;99.90;;;;;;5073131;28;20571;-77
2021/10/03 11:40:12;;;;;;;2.20;1.80;;;23.50;99.90;;;;;;5071813;28;20981;-78
2021/10/03 11:42:48;;;;;;;3.27;1.90;;;23.60;99.90;;;;;;5073251;28;20563;-78
2021/10/03 11:45:14;;;;;;;2.53;2.10;;;23.70;99.90;;;;;;5071950;28;20673;-78
2021/10/03 11:47:54;;;;;;;3.90;2.00;;;23.70;99.90;;;;;;5072713;28;20761;-77
2021/10/03 11:50:25;;;;;;;2.20;2.00;;;23.70;99.90;;;;;;5072569;28;20544;-78
2021/10/03 11:52:52;;;;;;;1.90;1.67;;;23.90;99.90;;;;;;5072775;28;20563;-77
2021/10/03 11:55:21;;;;;;;1.70;1.40;;;23.90;99.90;;;;;;5072875;28;20932;-78
2021/10/03 11:57:49;;;;;;;3.27;2.37;;;23.90;99.90;;;;;;5072815;28;20574;-78
2021/10/03 12:00:16;;;;;;;1.80;1.40;;;24.00;99.90;;;;;;5072588;28;21030;-78
2021/10/03 12:02:44;;;;;;;3.17;1.60;;;24.00;99.90;;;;;;5072731;28;20910;-77
2021/10/03 12:05:15;;;;;;;2.83;1.87;;;24.00;99.90;;;;;;5072716;28;20566;-79
2021/10/03 12:07:41;;;;;;;2.37;2.10;;;24.00;99.90;;;;;;5071397;28;20614;-78
2021/10/03 12:10:11;;;;;;;2.40;1.70;;;24.10;99.90;;;;;;5076397;28;20553;-79
2021/10/03 12:12:45;;;;;;;3.67;2.00;;;24.10;99.90;;;;;;5072404;28;20551;-79
2021/10/03 12:15:46;;;;;;;2.60;1.80;;;24.10;99.90;;;;;;5072299;28;20615;-78
2021/10/03 12:18:30;;;;;;;1.80;1.40;;;24.00;99.90;;;;;;5030346;28;20620;-79
2021/10/03 12:21:03;;;;;;;1.90;1.67;;;24.00;99.90;;;;;;5068902;28;20598;-79
2021/10/03 12:23:46;;;;;;;2.50;1.87;;;24.00;99.90;;;;;;5072539;28;20574;-79
2021/10/03 12:26:17;;;;;;;3.20;2.37;;;24.00;99.90;;;;;;5072415;28;20574;-79
2021/10/03 12:28:58;;;;;;;5.20;1.80;;;24.10;99.90;;;;;;5071141;28;20641;-79
2021/10/03 12:31:58;;;;;;;2.80;1.63;;;24.00;99.90;;;;;;5072717;28;20559;-79
2021/10/03 12:34:26;;;;;;;2.17;1.83;;;24.00;99.90;;;;;;5065833;28;20615;-79
2021/10/03 12:36:55;;;;;;;2.87;1.97;;;24.10;99.90;;;;;;5072994;28;20567;-79
2021/10/03 12:39:22;;;;;;;2.90;1.60;;;24.00;99.90;;;;;;5072604;28;21002;-79
2021/10/03 12:41:55;;;;;;;1.80;1.40;;;24.00;99.90;;;;;;5072200;28;20682;-79
2021/10/03 12:44:28;;;;;;;2.27;2.07;;;24.00;99.90;;;;;;5072332;28;20606;-79
2021/10/03 12:46:55;;;;;;;1.90;1.40;;;24.00;99.90;;;;;;5074277;28;20594;-78
2021/10/03 12:49:21;;;;;;;3.00;1.90;;;24.00;99.90;;;;;;5072664;28;20607;-78
2021/10/03 12:51:48;;;;;;;2.90;1.80;;;24.00;99.90;;;;;;5072420;28;20577;-78
2021/10/03 12:54:13;;;;;;;3.10;1.23;;;24.00;99.90;;;;;;5071184;28;21134;-78